sensor_id;sensor_type;location;lat;lon;timestamp;temperature;humidity
580;DHT22;276;48.392;9.950;2022-12-18T00:01:31;0.40;99.90
580;DHT22;276;48.392;9.950;2022-12-18T00:03:58;0.40;99.90
580;DHT22;276;48.392;9.950;2022-12-18T00:06:26;0.40;99.90
580;DHT22;276;48.392;9.950;2022-12-18T00:08:55;0.40;99.90
580;DHT22;276;48.392;9.950;2022-12-18T00:11:24;0.30;99.90
580;DHT22;276;48.392;9.950;2022-12-18T00:13:50;0.30;99.90
580;DHT22;276;48.392;9.950;2022-12-18T00:16:19;0.30;99.90
580;DHT22;276;48.392;9.950;2022-12-18T00:18:46;0.30;99.90
580;DHT22;276;48.392;9.950;2022-12-18T00:21:15;0.30;99.90
580;DHT22;276;48.392;9.950;2022-12-18T00:23:44;0.30;99.90
580;DHT22;276;48.392;9.950;2022-12-18T00:26:15;0.20;99.90
580;DHT22;276;48.392;9.950;2022-12-18T00:28:45;0.20;99.90
580;DHT22;276;48.392;9.950;2022-12-18T00:31:16;0.20;99.90
580;DHT22;276;48.392;9.950;2022-12-18T00:33:42;0.20;99.90
580;DHT22;276;48.392;9.950;2022-12-18T00:36:11;0.20;99.90
580;DHT22;276;48.392;9.950;2022-12-18T00:38:37;0.30;99.90
580;DHT22;276;48.392;9.950;2022-12-18T00:41:06;0.30;99.90
580;DHT22;276;48.392;9.950;2022-12-18T00:43:32;0.30;99.90
580;DHT22;276;48.392;9.950;2022-12-18T00:46:06;0.40;99.90
580;DHT22;276;48.392;9.950;2022-12-18T00:48:32;0.40;99.90
580;DHT22;276;48.392;9.950;2022-12-18T00:50:58;0.40;99.90
580;DHT22;276;48.392;9.950;2022-12-18T00:53:26;0.50;99.90
580;DHT22;276;48.392;9.950;2022-12-18T00:55:54;0.50;99.90
580;DHT22;276;48.392;9.950;2022-12-18T00:58:19;0.60;99.90
580;DHT22;276;48.392;9.950;2022-12-18T01:00:45;0.60;99.90
580;DHT22;276;48.392;9.950;2022-12-18T01:03:13;0.60;99.90
580;DHT22;276;48.392;9.950;2022-12-18T01:05:40;0.60;99.90
580;DHT22;276;48.392;9.950;2022-12-18T01:08:09;0.60;99.90
580;DHT22;276;48.392;9.950;2022-12-18T01:10:40;0.60;99.90
580;DHT22;276;48.392;9.950;2022-12-18T01:13:06;0.70;99.90
580;DHT22;276;48.392;9.950;2022-12-18T01:15:31;0.70;99.90
580;DHT22;276;48.392;9.950;2022-12-18T01:17:59;0.70;99.90
580;DHT22;276;48.392;9.950;2022-12-18T01:20:27;0.70;99.90
580;DHT22;276;48.392;9.950;2022-12-18T01:22:53;0.60;99.90
580;DHT22;276;48.392;9.950;2022-12-18T01:25:18;0.60;99.90
580;DHT22;276;48.392;9.950;2022-12-18T01:27:44;0.60;99.90
580;DHT22;276;48.392;9.950;2022-12-18T01:30:12;0.60;99.90
580;DHT22;276;48.392;9.950;2022-12-18T01:32:37;0.60;99.90
580;DHT22;276;48.392;9.950;2022-12-18T01:35:06;0.60;99.90
580;DHT22;276;48.392;9.950;2022-12-18T01:37:31;0.60;99.90
580;DHT22;276;48.392;9.950;2022-12-18T01:39:59;0.50;99.90
580;DHT22;276;48.392;9.950;2022-12-18T01:42:25;0.50;99.90
580;DHT22;276;48.392;9.950;2022-12-18T01:47:48;0.40;99.90
580;DHT22;276;48.392;9.950;2022-12-18T01:50:18;0.40;99.90
580;DHT22;276;48.392;9.950;2022-12-18T01:52:51;0.40;99.90
580;DHT22;276;48.392;9.950;2022-12-18T01:55:23;0.40;99.90
580;DHT22;276;48.392;9.950;2022-12-18T01:57:52;0.40;99.90
580;DHT22;276;48.392;9.950;2022-12-18T02:00:22;0.40;99.90
580;DHT22;276;48.392;9.950;2022-12-18T02:02:53;0.40;99.90
580;DHT22;276;48.392;9.950;2022-12-18T02:05:29;0.30;99.90
580;DHT22;276;48.392;9.950;2022-12-18T02:14:08;0.30;99.90
580;DHT22;276;48.392;9.950;2022-12-18T02:16:53;0.30;99.90
580;DHT22;276;48.392;9.950;2022-12-18T02:19:34;0.30;99.90
580;DHT22;276;48.392;9.950;2022-12-18T02:27:21;0.30;99.90
580;DHT22;276;48.392;9.950;2022-12-18T02:29:54;0.30;99.90
580;DHT22;276;48.392;9.950;2022-12-18T02:32:26;0.30;99.90
580;DHT22;276;48.392;9.950;2022-12-18T02:34:56;0.30;99.90
580;DHT22;276;48.392;9.950;2022-12-18T02:37:23;0.30;99.90
580;DHT22;276;48.392;9.950;2022-12-18T02:39:51;0.30;99.90
580;DHT22;276;48.392;9.950;2022-12-18T02:42:20;0.30;99.90
580;DHT22;276;48.392;9.950;2022-12-18T02:44:51;0.30;99.90
580;DHT22;276;48.392;9.950;2022-12-18T02:47:20;0.30;99.90
580;DHT22;276;48.392;9.950;2022-12-18T02:55:32;0.30;99.90
580;DHT22;276;48.392;9.950;2022-12-18T02:57:54;0.40;99.90
580;DHT22;276;48.392;9.950;2022-12-18T03:00:30;0.40;99.90
580;DHT22;276;48.392;9.950;2022-12-18T03:03:06;0.40;99.90
580;DHT22;276;48.392;9.950;2022-12-18T03:05:46;0.40;99.90
580;DHT22;276;48.392;9.950;2022-12-18T03:08:19;0.30;99.90
580;DHT22;276;48.392;9.950;2022-12-18T03:11:11;0.30;99.90
580;DHT22;276;48.392;9.950;2022-12-18T03:13:50;0.30;99.90
580;DHT22;276;48.392;9.950;2022-12-18T03:16:26;0.30;99.90
580;DHT22;276;48.392;9.950;2022-12-18T03:19:08;0.30;99.90
580;DHT22;276;48.392;9.950;2022-12-18T03:22:02;0.30;99.90
580;DHT22;276;48.392;9.950;2022-12-18T03:24:31;0.30;99.90
580;DHT22;276;48.392;9.950;2022-12-18T03:27:01;0.30;99.90
580;DHT22;276;48.392;9.950;2022-12-18T03:29:42;0.40;99.90
580;DHT22;276;48.392;9.950;2022-12-18T03:32:18;0.40;99.90
580;DHT22;276;48.392;9.950;2022-12-18T03:34:47;0.40;99.90
580;DHT22;276;48.392;9.950;2022-12-18T03:37:14;0.40;99.90
580;DHT22;276;48.392;9.950;2022-12-18T03:39:40;0.40;99.90
580;DHT22;276;48.392;9.950;2022-12-18T03:42:28;0.40;99.90
580;DHT22;276;48.392;9.950;2022-12-18T03:48:08;0.30;99.90
580;DHT22;276;48.392;9.950;2022-12-18T03:56:09;0.20;99.90
580;DHT22;276;48.392;9.950;2022-12-18T03:58:40;0.20;99.90
580;DHT22;276;48.392;9.950;2022-12-18T04:01:07;0.20;99.90
580;DHT22;276;48.392;9.950;2022-12-18T04:03:34;0.10;99.90
580;DHT22;276;48.392;9.950;2022-12-18T04:06:02;0.10;99.90
580;DHT22;276;48.392;9.950;2022-12-18T04:08:28;0.00;99.90
580;DHT22;276;48.392;9.950;2022-12-18T04:10:54;0.00;99.90
580;DHT22;276;48.392;9.950;2022-12-18T04:13:32;0.00;99.90
580;DHT22;276;48.392;9.950;2022-12-18T04:15:59;0.00;99.90
580;DHT22;276;48.392;9.950;2022-12-18T04:18:25;0.00;99.90
580;DHT22;276;48.392;9.950;2022-12-18T04:20:51;0.00;99.90
580;DHT22;276;48.392;9.950;2022-12-18T04:23:16;0.00;99.90
580;DHT22;276;48.392;9.950;2022-12-18T04:25:42;0.00;99.90
580;DHT22;276;48.392;9.950;2022-12-18T04:28:07;0.10;99.90
580;DHT22;276;48.392;9.950;2022-12-18T04:30:33;0.00;99.90
580;DHT22;276;48.392;9.950;2022-12-18T04:32:59;0.00;99.90
580;DHT22;276;48.392;9.950;2022-12-18T04:35:24;0.10;99.90
580;DHT22;276;48.392;9.950;2022-12-18T04:37:52;0.10;99.90
580;DHT22;276;48.392;9.950;2022-12-18T04:40:18;0.10;99.90
580;DHT22;276;48.392;9.950;2022-12-18T04:42:43;0.00;99.90
580;DHT22;276;48.392;9.950;2022-12-18T04:45:09;0.00;99.90
580;DHT22;276;48.392;9.950;2022-12-18T04:47:35;0.00;99.90
580;DHT22;276;48.392;9.950;2022-12-18T04:50:03;0.00;99.90
580;DHT22;276;48.392;9.950;2022-12-18T04:52:30;0.00;99.90
580;DHT22;276;48.392;9.950;2022-12-18T04:54:58;0.00;99.90
580;DHT22;276;48.392;9.950;2022-12-18T04:57:24;0.00;99.90
580;DHT22;276;48.392;9.950;2022-12-18T04:59:49;0.00;99.90
580;DHT22;276;48.392;9.950;2022-12-18T05:02:17;0.00;99.90
580;DHT22;276;48.392;9.950;2022-12-18T05:04:42;0.10;99.90
580;DHT22;276;48.392;9.950;2022-12-18T05:07:12;0.10;99.90
580;DHT22;276;48.392;9.950;2022-12-18T05:09:38;0.10;99.90
580;DHT22;276;48.392;9.950;2022-12-18T05:12:06;0.10;99.90
580;DHT22;276;48.392;9.950;2022-12-18T05:14:34;0.10;99.90
580;DHT22;276;48.392;9.950;2022-12-18T05:17:00;0.10;99.90
580;DHT22;276;48.392;9.950;2022-12-18T05:19:25;0.10;99.90
580;DHT22;276;48.392;9.950;2022-12-18T05:21:53;0.10;99.90
580;DHT22;276;48.392;9.950;2022-12-18T05:24:19;0.20;99.90
580;DHT22;276;48.392;9.950;2022-12-18T05:26:44;0.20;99.90
580;DHT22;276;48.392;9.950;2022-12-18T05:29:10;0.20;99.90
580;DHT22;276;48.392;9.950;2022-12-18T05:31:38;0.20;99.90
580;DHT22;276;48.392;9.950;2022-12-18T05:34:06;0.20;99.90
580;DHT22;276;48.392;9.950;2022-12-18T05:36:31;0.20;99.90
580;DHT22;276;48.392;9.950;2022-12-18T05:38:59;0.20;99.90
580;DHT22;276;48.392;9.950;2022-12-18T05:41:26;0.20;99.90
580;DHT22;276;48.392;9.950;2022-12-18T05:43:51;0.20;99.90
580;DHT22;276;48.392;9.950;2022-12-18T05:46:19;0.20;99.90
580;DHT22;276;48.392;9.950;2022-12-18T05:48:49;0.20;99.90
580;DHT22;276;48.392;9.950;2022-12-18T05:51:17;0.20;99.90
580;DHT22;276;48.392;9.950;2022-12-18T05:53:48;0.30;99.90
580;DHT22;276;48.392;9.950;2022-12-18T05:56:19;0.20;99.90
580;DHT22;276;48.392;9.950;2022-12-18T05:58:45;0.20;99.90
580;DHT22;276;48.392;9.950;2022-12-18T06:01:16;0.20;99.90
580;DHT22;276;48.392;9.950;2022-12-18T06:03:42;0.30;99.90
580;DHT22;276;48.392;9.950;2022-12-18T06:06:18;0.30;99.90
580;DHT22;276;48.392;9.950;2022-12-18T06:08:44;0.30;99.90
580;DHT22;276;48.392;9.950;2022-12-18T06:11:10;0.30;99.90
580;DHT22;276;48.392;9.950;2022-12-18T06:13:41;0.20;99.90
580;DHT22;276;48.392;9.950;2022-12-18T06:16:07;0.20;99.90
580;DHT22;276;48.392;9.950;2022-12-18T06:18:33;0.20;99.90
580;DHT22;276;48.392;9.950;2022-12-18T06:21:02;0.20;99.90
580;DHT22;276;48.392;9.950;2022-12-18T06:23:27;0.20;99.90
580;DHT22;276;48.392;9.950;2022-12-18T06:25:56;0.20;99.90
580;DHT22;276;48.392;9.950;2022-12-18T06:28:21;0.20;99.90
580;DHT22;276;48.392;9.950;2022-12-18T06:30:49;0.30;99.90
580;DHT22;276;48.392;9.950;2022-12-18T06:33:18;0.30;99.90
580;DHT22;276;48.392;9.950;2022-12-18T06:35:44;0.30;99.90
580;DHT22;276;48.392;9.950;2022-12-18T06:38:09;0.30;99.90
580;DHT22;276;48.392;9.950;2022-12-18T06:40:37;0.30;99.90
580;DHT22;276;48.392;9.950;2022-12-18T06:43:06;0.30;99.90
580;DHT22;276;48.392;9.950;2022-12-18T06:45:33;0.40;99.90
580;DHT22;276;48.392;9.950;2022-12-18T06:48:03;0.40;99.90
580;DHT22;276;48.392;9.950;2022-12-18T06:50:29;0.40;99.90
580;DHT22;276;48.392;9.950;2022-12-18T06:52:54;0.40;99.90
580;DHT22;276;48.392;9.950;2022-12-18T06:55:20;0.40;99.90
580;DHT22;276;48.392;9.950;2022-12-18T06:57:50;0.40;99.90
580;DHT22;276;48.392;9.950;2022-12-18T07:00:18;0.40;99.90
580;DHT22;276;48.392;9.950;2022-12-18T07:02:44;0.30;99.90
580;DHT22;276;48.392;9.950;2022-12-18T07:05:12;0.40;99.90
580;DHT22;276;48.392;9.950;2022-12-18T07:07:42;0.40;99.90
580;DHT22;276;48.392;9.950;2022-12-18T07:10:08;0.30;99.90
580;DHT22;276;48.392;9.950;2022-12-18T07:12:33;0.30;99.90
580;DHT22;276;48.392;9.950;2022-12-18T07:15:01;0.30;99.90
580;DHT22;276;48.392;9.950;2022-12-18T07:17:27;0.40;99.90
580;DHT22;276;48.392;9.950;2022-12-18T07:19:53;0.40;99.90
580;DHT22;276;48.392;9.950;2022-12-18T07:22:19;0.30;99.90
580;DHT22;276;48.392;9.950;2022-12-18T07:24:44;0.30;99.90
580;DHT22;276;48.392;9.950;2022-12-18T07:27:12;0.40;99.90
580;DHT22;276;48.392;9.950;2022-12-18T07:29:38;0.40;99.90
580;DHT22;276;48.392;9.950;2022-12-18T07:32:06;0.40;99.90
580;DHT22;276;48.392;9.950;2022-12-18T07:34:32;0.30;99.90
580;DHT22;276;48.392;9.950;2022-12-18T07:37:01;0.40;99.90
580;DHT22;276;48.392;9.950;2022-12-18T07:39:29;0.40;99.90
580;DHT22;276;48.392;9.950;2022-12-18T07:41:54;0.40;99.90
580;DHT22;276;48.392;9.950;2022-12-18T07:44:38;0.40;99.90
580;DHT22;276;48.392;9.950;2022-12-18T07:47:04;0.40;99.90
580;DHT22;276;48.392;9.950;2022-12-18T07:49:34;0.40;99.90
580;DHT22;276;48.392;9.950;2022-12-18T07:52:00;0.50;99.90
580;DHT22;276;48.392;9.950;2022-12-18T07:54:27;0.50;99.90
580;DHT22;276;48.392;9.950;2022-12-18T07:56:54;0.40;99.90
580;DHT22;276;48.392;9.950;2022-12-18T07:59:20;0.40;99.90
580;DHT22;276;48.392;9.950;2022-12-18T08:01:45;0.40;99.90
580;DHT22;276;48.392;9.950;2022-12-18T08:04:11;0.40;99.90
580;DHT22;276;48.392;9.950;2022-12-18T08:06:42;0.40;99.90
580;DHT22;276;48.392;9.950;2022-12-18T08:09:09;0.40;99.90
580;DHT22;276;48.392;9.950;2022-12-18T08:11:35;0.40;99.90
580;DHT22;276;48.392;9.950;2022-12-18T08:14:01;0.40;99.90
580;DHT22;276;48.392;9.950;2022-12-18T08:16:27;0.50;99.90
580;DHT22;276;48.392;9.950;2022-12-18T08:18:56;0.50;99.90
580;DHT22;276;48.392;9.950;2022-12-18T08:21:26;0.50;99.90
580;DHT22;276;48.392;9.950;2022-12-18T08:23:57;0.50;99.90
580;DHT22;276;48.392;9.950;2022-12-18T08:26:23;0.40;99.90
580;DHT22;276;48.392;9.950;2022-12-18T08:28:50;0.40;99.90
580;DHT22;276;48.392;9.950;2022-12-18T08:31:19;0.50;99.90
580;DHT22;276;48.392;9.950;2022-12-18T08:33:44;0.40;99.90
580;DHT22;276;48.392;9.950;2022-12-18T08:36:11;0.40;99.90
580;DHT22;276;48.392;9.950;2022-12-18T08:38:39;0.40;99.90
580;DHT22;276;48.392;9.950;2022-12-18T08:41:09;0.40;99.90
580;DHT22;276;48.392;9.950;2022-12-18T08:43:38;0.50;99.90
580;DHT22;276;48.392;9.950;2022-12-18T08:46:24;0.50;99.90
580;DHT22;276;48.392;9.950;2022-12-18T08:48:56;0.50;99.90
580;DHT22;276;48.392;9.950;2022-12-18T08:51:21;0.60;99.90
580;DHT22;276;48.392;9.950;2022-12-18T08:53:47;0.60;99.90
580;DHT22;276;48.392;9.950;2022-12-18T08:56:13;0.60;99.90
580;DHT22;276;48.392;9.950;2022-12-18T08:58:40;0.70;99.90
580;DHT22;276;48.392;9.950;2022-12-18T09:01:08;0.60;99.90
580;DHT22;276;48.392;9.950;2022-12-18T09:03:34;0.60;99.90
580;DHT22;276;48.392;9.950;2022-12-18T09:06:00;0.70;99.90
580;DHT22;276;48.392;9.950;2022-12-18T09:08:29;0.60;99.90
580;DHT22;276;48.392;9.950;2022-12-18T09:10:54;0.70;99.90
580;DHT22;276;48.392;9.950;2022-12-18T09:13:20;0.70;99.90
580;DHT22;276;48.392;9.950;2022-12-18T09:15:51;0.70;99.90
580;DHT22;276;48.392;9.950;2022-12-18T09:18:19;0.70;99.90
580;DHT22;276;48.392;9.950;2022-12-18T09:20:45;0.80;99.90
580;DHT22;276;48.392;9.950;2022-12-18T09:23:16;0.80;99.90
580;DHT22;276;48.392;9.950;2022-12-18T09:25:44;0.80;99.90
580;DHT22;276;48.392;9.950;2022-12-18T09:30:44;0.80;99.90
580;DHT22;276;48.392;9.950;2022-12-18T09:33:12;0.80;99.90
580;DHT22;276;48.392;9.950;2022-12-18T09:35:40;0.80;99.90
580;DHT22;276;48.392;9.950;2022-12-18T09:38:06;0.80;99.90
580;DHT22;276;48.392;9.950;2022-12-18T09:40:40;0.90;99.90
580;DHT22;276;48.392;9.950;2022-12-18T09:46:18;0.90;99.90
580;DHT22;276;48.392;9.950;2022-12-18T09:48:50;0.90;99.90
580;DHT22;276;48.392;9.950;2022-12-18T09:51:28;0.90;99.90
580;DHT22;276;48.392;9.950;2022-12-18T09:54:01;0.90;99.90
580;DHT22;276;48.392;9.950;2022-12-18T09:56:35;0.90;99.90
580;DHT22;276;48.392;9.950;2022-12-18T09:59:05;0.90;99.90
580;DHT22;276;48.392;9.950;2022-12-18T10:01:32;1.00;99.90
580;DHT22;276;48.392;9.950;2022-12-18T10:03:59;1.00;99.90
580;DHT22;276;48.392;9.950;2022-12-18T10:06:49;1.10;99.90
580;DHT22;276;48.392;9.950;2022-12-18T10:09:37;1.20;99.90
580;DHT22;276;48.392;9.950;2022-12-18T10:19:54;1.40;99.90
580;DHT22;276;48.392;9.950;2022-12-18T10:22:35;1.40;99.90
580;DHT22;276;48.392;9.950;2022-12-18T10:25:34;1.30;99.90
580;DHT22;276;48.392;9.950;2022-12-18T10:28:14;1.30;99.90
580;DHT22;276;48.392;9.950;2022-12-18T10:30:45;1.30;99.90
580;DHT22;276;48.392;9.950;2022-12-18T10:33:18;1.20;99.90
580;DHT22;276;48.392;9.950;2022-12-18T10:35:47;1.20;99.90
580;DHT22;276;48.392;9.950;2022-12-18T10:48:54;1.30;99.90
580;DHT22;276;48.392;9.950;2022-12-18T10:53:54;1.20;99.90
580;DHT22;276;48.392;9.950;2022-12-18T10:56:21;1.20;99.90
580;DHT22;276;48.392;9.950;2022-12-18T10:59:06;1.20;99.90
580;DHT22;276;48.392;9.950;2022-12-18T11:04:31;1.10;99.90
580;DHT22;276;48.392;9.950;2022-12-18T11:07:02;1.00;99.90
580;DHT22;276;48.392;9.950;2022-12-18T11:09:32;1.00;99.90
580;DHT22;276;48.392;9.950;2022-12-18T11:12:02;1.10;99.90
580;DHT22;276;48.392;9.950;2022-12-18T11:14:44;1.10;99.90
580;DHT22;276;48.392;9.950;2022-12-18T11:20:19;1.20;99.90
580;DHT22;276;48.392;9.950;2022-12-18T11:23:04;1.20;99.90
580;DHT22;276;48.392;9.950;2022-12-18T11:25:32;1.20;99.90
580;DHT22;276;48.392;9.950;2022-12-18T11:28:00;1.30;99.90
580;DHT22;276;48.392;9.950;2022-12-18T11:30:31;1.30;99.90
580;DHT22;276;48.392;9.950;2022-12-18T11:33:19;1.30;99.90
580;DHT22;276;48.392;9.950;2022-12-18T11:35:49;1.40;99.90
580;DHT22;276;48.392;9.950;2022-12-18T11:38:28;1.40;99.90
580;DHT22;276;48.392;9.950;2022-12-18T11:43:43;1.30;99.90
580;DHT22;276;48.392;9.950;2022-12-18T11:46:26;1.30;99.90
580;DHT22;276;48.392;9.950;2022-12-18T11:49:12;1.40;99.90
580;DHT22;276;48.392;9.950;2022-12-18T11:54:26;1.40;99.90
580;DHT22;276;48.392;9.950;2022-12-18T11:59:48;1.30;99.90
580;DHT22;276;48.392;9.950;2022-12-18T12:07:43;1.30;99.90
580;DHT22;276;48.392;9.950;2022-12-18T12:16:21;1.30;99.90
580;DHT22;276;48.392;9.950;2022-12-18T12:18:55;1.30;99.90
580;DHT22;276;48.392;9.950;2022-12-18T12:21:36;1.40;99.90
580;DHT22;276;48.392;9.950;2022-12-18T12:27:13;1.50;99.90
580;DHT22;276;48.392;9.950;2022-12-18T12:40:13;1.40;99.90
580;DHT22;276;48.392;9.950;2022-12-18T12:43:31;1.40;99.90
580;DHT22;276;48.392;9.950;2022-12-18T12:45:55;1.40;99.90
580;DHT22;276;48.392;9.950;2022-12-18T12:48:32;1.30;99.90
580;DHT22;276;48.392;9.950;2022-12-18T12:51:03;1.30;99.90
580;DHT22;276;48.392;9.950;2022-12-18T12:53:34;1.30;99.90
580;DHT22;276;48.392;9.950;2022-12-18T12:56:02;1.20;99.90
580;DHT22;276;48.392;9.950;2022-12-18T12:58:46;1.30;99.90
580;DHT22;276;48.392;9.950;2022-12-18T13:02:02;1.30;99.90
580;DHT22;276;48.392;9.950;2022-12-18T13:06:43;1.20;99.90
580;DHT22;276;48.392;9.950;2022-12-18T13:09:13;1.30;99.90
580;DHT22;276;48.392;9.950;2022-12-18T13:11:48;1.20;99.90
580;DHT22;276;48.392;9.950;2022-12-18T13:14:37;1.30;99.90
580;DHT22;276;48.392;9.950;2022-12-18T13:20:11;1.30;99.90
580;DHT22;276;48.392;9.950;2022-12-18T13:22:46;1.20;99.90
580;DHT22;276;48.392;9.950;2022-12-18T13:25:32;1.20;99.90
580;DHT22;276;48.392;9.950;2022-12-18T13:28:06;1.20;99.90
580;DHT22;276;48.392;9.950;2022-12-18T13:43:35;1.30;99.90
580;DHT22;276;48.392;9.950;2022-12-18T13:49:00;1.30;99.90
580;DHT22;276;48.392;9.950;2022-12-18T13:51:26;1.30;99.90
580;DHT22;276;48.392;9.950;2022-12-18T13:56:31;1.30;99.90
580;DHT22;276;48.392;9.950;2022-12-18T13:59:22;1.30;99.90
580;DHT22;276;48.392;9.950;2022-12-18T14:01:51;1.40;99.90
580;DHT22;276;48.392;9.950;2022-12-18T14:04:34;1.40;99.90
580;DHT22;276;48.392;9.950;2022-12-18T14:07:07;1.40;99.90
580;DHT22;276;48.392;9.950;2022-12-18T14:09:40;1.40;99.90
580;DHT22;276;48.392;9.950;2022-12-18T14:12:16;1.40;99.90
580;DHT22;276;48.392;9.950;2022-12-18T14:15:05;1.30;99.90
580;DHT22;276;48.392;9.950;2022-12-18T14:17:32;1.30;99.90
580;DHT22;276;48.392;9.950;2022-12-18T14:19:57;1.30;99.90
580;DHT22;276;48.392;9.950;2022-12-18T14:22:25;1.30;99.90
580;DHT22;276;48.392;9.950;2022-12-18T14:27:51;1.20;99.90
580;DHT22;276;48.392;9.950;2022-12-18T14:30:24;1.10;99.90
580;DHT22;276;48.392;9.950;2022-12-18T14:33:04;1.10;99.90
580;DHT22;276;48.392;9.950;2022-12-18T14:35:31;1.10;99.90
580;DHT22;276;48.392;9.950;2022-12-18T14:38:21;1.00;99.90
580;DHT22;276;48.392;9.950;2022-12-18T14:43:34;0.80;99.90
580;DHT22;276;48.392;9.950;2022-12-18T14:46:01;0.70;99.90
580;DHT22;276;48.392;9.950;2022-12-18T14:48:41;0.60;99.90
580;DHT22;276;48.392;9.950;2022-12-18T14:53:42;0.50;99.90
580;DHT22;276;48.392;9.950;2022-12-18T14:56:21;0.40;99.90
580;DHT22;276;48.392;9.950;2022-12-18T14:59:16;0.30;99.90
580;DHT22;276;48.392;9.950;2022-12-18T15:04:34;0.50;99.90
580;DHT22;276;48.392;9.950;2022-12-18T15:09:39;0.60;99.90
580;DHT22;276;48.392;9.950;2022-12-18T15:12:41;0.60;99.90
580;DHT22;276;48.392;9.950;2022-12-18T15:15:41;0.70;99.90
580;DHT22;276;48.392;9.950;2022-12-18T15:17:57;0.70;99.90
580;DHT22;276;48.392;9.950;2022-12-18T15:20:23;0.70;99.90
580;DHT22;276;48.392;9.950;2022-12-18T15:22:51;0.70;99.90
580;DHT22;276;48.392;9.950;2022-12-18T15:25:34;0.60;99.90
580;DHT22;276;48.392;9.950;2022-12-18T15:28:02;0.60;99.90
580;DHT22;276;48.392;9.950;2022-12-18T15:30:30;0.60;99.90
580;DHT22;276;48.392;9.950;2022-12-18T15:33:23;0.60;99.90
580;DHT22;276;48.392;9.950;2022-12-18T15:35:57;0.70;99.90
580;DHT22;276;48.392;9.950;2022-12-18T15:38:23;0.60;99.90
580;DHT22;276;48.392;9.950;2022-12-18T15:40:48;0.70;99.90
580;DHT22;276;48.392;9.950;2022-12-18T15:43:14;0.70;99.90
580;DHT22;276;48.392;9.950;2022-12-18T15:45:58;0.70;99.90
580;DHT22;276;48.392;9.950;2022-12-18T15:48:26;0.70;99.90
580;DHT22;276;48.392;9.950;2022-12-18T15:50:57;0.70;99.90
580;DHT22;276;48.392;9.950;2022-12-18T15:53:25;0.70;99.90
580;DHT22;276;48.392;9.950;2022-12-18T15:55:53;0.70;99.90
580;DHT22;276;48.392;9.950;2022-12-18T15:58:37;0.70;99.90
580;DHT22;276;48.392;9.950;2022-12-18T16:01:02;0.60;99.90
580;DHT22;276;48.392;9.950;2022-12-18T16:03:30;0.60;99.90
580;DHT22;276;48.392;9.950;2022-12-18T16:05:59;0.70;99.90
580;DHT22;276;48.392;9.950;2022-12-18T16:08:30;0.70;99.90
580;DHT22;276;48.392;9.950;2022-12-18T16:10:57;0.70;99.90
580;DHT22;276;48.392;9.950;2022-12-18T16:13:23;0.70;99.90
580;DHT22;276;48.392;9.950;2022-12-18T16:15:51;0.60;99.90
580;DHT22;276;48.392;9.950;2022-12-18T16:18:17;0.70;99.90
580;DHT22;276;48.392;9.950;2022-12-18T16:20:43;0.70;99.90
580;DHT22;276;48.392;9.950;2022-12-18T16:23:11;0.70;99.90
580;DHT22;276;48.392;9.950;2022-12-18T16:25:36;0.70;99.90
580;DHT22;276;48.392;9.950;2022-12-18T16:28:04;0.80;99.90
580;DHT22;276;48.392;9.950;2022-12-18T16:30:31;0.80;99.90
580;DHT22;276;48.392;9.950;2022-12-18T16:33:00;0.80;99.90
580;DHT22;276;48.392;9.950;2022-12-18T16:35:26;0.70;99.90
580;DHT22;276;48.392;9.950;2022-12-18T16:37:54;0.70;99.90
580;DHT22;276;48.392;9.950;2022-12-18T16:40:20;0.50;99.90
580;DHT22;276;48.392;9.950;2022-12-18T16:42:48;0.50;99.90
580;DHT22;276;48.392;9.950;2022-12-18T16:45:17;0.40;99.90
580;DHT22;276;48.392;9.950;2022-12-18T16:47:43;0.40;99.90
580;DHT22;276;48.392;9.950;2022-12-18T16:50:10;0.40;99.90
580;DHT22;276;48.392;9.950;2022-12-18T16:52:36;0.40;99.90
580;DHT22;276;48.392;9.950;2022-12-18T16:55:03;0.40;99.90
580;DHT22;276;48.392;9.950;2022-12-18T16:57:28;0.40;99.90
580;DHT22;276;48.392;9.950;2022-12-18T16:59:56;0.40;99.90
580;DHT22;276;48.392;9.950;2022-12-18T17:02:24;0.40;99.90
580;DHT22;276;48.392;9.950;2022-12-18T17:04:54;0.40;99.90
580;DHT22;276;48.392;9.950;2022-12-18T17:07:22;0.40;99.90
580;DHT22;276;48.392;9.950;2022-12-18T17:09:50;0.30;99.90
580;DHT22;276;48.392;9.950;2022-12-18T17:12:19;0.30;99.90
580;DHT22;276;48.392;9.950;2022-12-18T17:14:44;0.30;99.90
580;DHT22;276;48.392;9.950;2022-12-18T17:17:10;0.30;99.90
580;DHT22;276;48.392;9.950;2022-12-18T17:19:38;0.40;99.90
580;DHT22;276;48.392;9.950;2022-12-18T17:22:04;0.40;99.90
580;DHT22;276;48.392;9.950;2022-12-18T17:24:32;0.40;99.90
580;DHT22;276;48.392;9.950;2022-12-18T17:26:58;0.50;99.90
580;DHT22;276;48.392;9.950;2022-12-18T17:29:25;0.50;99.90
580;DHT22;276;48.392;9.950;2022-12-18T17:31:51;0.50;99.90
580;DHT22;276;48.392;9.950;2022-12-18T17:34:17;0.50;99.90
580;DHT22;276;48.392;9.950;2022-12-18T17:36:42;0.50;99.90
580;DHT22;276;48.392;9.950;2022-12-18T17:39:18;0.50;99.90
580;DHT22;276;48.392;9.950;2022-12-18T17:41:46;0.50;99.90
580;DHT22;276;48.392;9.950;2022-12-18T17:44:13;0.50;99.90
580;DHT22;276;48.392;9.950;2022-12-18T17:46:38;0.60;99.90
580;DHT22;276;48.392;9.950;2022-12-18T17:49:04;0.60;99.90
580;DHT22;276;48.392;9.950;2022-12-18T17:51:32;0.60;99.90
580;DHT22;276;48.392;9.950;2022-12-18T17:53:58;0.60;99.90
580;DHT22;276;48.392;9.950;2022-12-18T17:56:23;0.70;99.90
580;DHT22;276;48.392;9.950;2022-12-18T17:58:49;0.70;99.90
580;DHT22;276;48.392;9.950;2022-12-18T18:01:18;0.60;99.90
580;DHT22;276;48.392;9.950;2022-12-18T18:03:44;0.70;99.90
580;DHT22;276;48.392;9.950;2022-12-18T18:06:12;0.70;99.90
580;DHT22;276;48.392;9.950;2022-12-18T18:08:41;0.70;99.90
580;DHT22;276;48.392;9.950;2022-12-18T18:11:14;0.70;99.90
580;DHT22;276;48.392;9.950;2022-12-18T18:14:01;0.70;99.90
580;DHT22;276;48.392;9.950;2022-12-18T18:16:40;0.70;99.90
580;DHT22;276;48.392;9.950;2022-12-18T18:19:14;0.70;99.90
580;DHT22;276;48.392;9.950;2022-12-18T18:21:44;0.80;99.90
580;DHT22;276;48.392;9.950;2022-12-18T18:24:12;0.70;99.90
580;DHT22;276;48.392;9.950;2022-12-18T18:26:38;0.70;99.90
580;DHT22;276;48.392;9.950;2022-12-18T18:29:06;0.70;99.90
580;DHT22;276;48.392;9.950;2022-12-18T18:31:35;0.80;99.90
580;DHT22;276;48.392;9.950;2022-12-18T18:34:03;0.70;99.90
580;DHT22;276;48.392;9.950;2022-12-18T18:36:29;0.70;99.90
580;DHT22;276;48.392;9.950;2022-12-18T18:38:58;0.70;99.90
580;DHT22;276;48.392;9.950;2022-12-18T18:41:23;0.70;99.90
580;DHT22;276;48.392;9.950;2022-12-18T18:43:53;0.70;99.90
580;DHT22;276;48.392;9.950;2022-12-18T18:46:20;0.70;99.90
580;DHT22;276;48.392;9.950;2022-12-18T18:48:48;0.70;99.90
580;DHT22;276;48.392;9.950;2022-12-18T18:51:17;0.70;99.90
580;DHT22;276;48.392;9.950;2022-12-18T18:53:45;0.70;99.90
580;DHT22;276;48.392;9.950;2022-12-18T18:56:15;0.70;99.90
580;DHT22;276;48.392;9.950;2022-12-18T18:58:41;0.70;99.90
580;DHT22;276;48.392;9.950;2022-12-18T19:01:10;0.70;99.90
580;DHT22;276;48.392;9.950;2022-12-18T19:03:37;0.70;99.90
580;DHT22;276;48.392;9.950;2022-12-18T19:06:07;0.80;99.90
580;DHT22;276;48.392;9.950;2022-12-18T19:08:36;0.70;99.90
580;DHT22;276;48.392;9.950;2022-12-18T19:11:06;0.70;99.90
580;DHT22;276;48.392;9.950;2022-12-18T19:13:52;0.70;99.90
580;DHT22;276;48.392;9.950;2022-12-18T19:16:23;0.70;99.90
580;DHT22;276;48.392;9.950;2022-12-18T19:18:51;0.70;99.90
580;DHT22;276;48.392;9.950;2022-12-18T19:21:17;0.70;99.90
580;DHT22;276;48.392;9.950;2022-12-18T19:23:43;0.70;99.90